Time;durP1;ratioP1;P1;durP2;ratioP2;P2;SDS_P1;SDS_P2;PMS_P1;PMS_P2;Temp;Humidity;BMP_temperature;BMP_pressure;BME280_temperature;BME280_humidity;BME280_pressure;Samples;Min_cycle;Max_cycle;Signal;HPM_P1;HPM_P2
2022/10/07 00:01:20;;;;;;;13.18;3.47;;;9.50;99.90;;;;;;5090009;28;20724;-44
2022/10/07 00:03:46;;;;;;;10.45;3.08;;;9.50;99.90;;;;;;5088291;28;20074;-44
2022/10/07 00:06:17;;;;;;;9.75;2.83;;;9.50;99.90;;;;;;5089930;28;20044;-45
2022/10/07 00:08:49;;;;;;;8.10;2.58;;;9.50;99.90;;;;;;5089953;28;20036;-44
2022/10/07 00:11:23;;;;;;;10.43;2.92;;;9.50;99.90;;;;;;5090004;28;20031;-45
2022/10/07 00:13:51;;;;;;;14.63;3.22;;;9.40;99.90;;;;;;5090331;28;20039;-44
2022/10/07 00:16:20;;;;;;;10.73;3.13;;;9.40;99.90;;;;;;5093639;28;20032;-45
2022/10/07 00:18:47;;;;;;;11.10;3.15;;;9.40;99.90;;;;;;5093808;28;20839;-45
2022/10/07 00:21:15;;;;;;;9.45;3.13;;;9.30;99.90;;;;;;5093866;28;20489;-46
2022/10/07 00:23:42;;;;;;;10.20;3.17;;;9.20;99.90;;;;;;5093836;28;20531;-47
2022/10/07 00:26:10;;;;;;;10.95;3.10;;;9.30;99.90;;;;;;5093312;28;20081;-47
2022/10/07 00:28:36;;;;;;;7.78;2.80;;;9.30;99.90;;;;;;5093073;28;20056;-44
2022/10/07 00:31:12;;;;;;;13.00;3.28;;;9.30;99.90;;;;;;5091696;28;20051;-45
2022/10/07 00:33:39;;;;;;;13.95;3.22;;;9.20;99.90;;;;;;5092793;28;20043;-43
2022/10/07 00:36:32;;;;;;;11.32;3.50;;;9.30;99.90;;;;;;5093351;28;20036;-43
2022/10/07 00:39:04;;;;;;;11.02;3.40;;;9.20;99.90;;;;;;5090751;28;20354;-44
2022/10/07 00:41:34;;;;;;;9.23;3.00;;;9.30;99.90;;;;;;5092070;28;20368;-46
2022/10/07 00:44:25;;;;;;;13.57;3.10;;;9.30;99.90;;;;;;5093172;28;20036;-47
2022/10/07 00:46:51;;;;;;;8.98;2.78;;;9.20;99.90;;;;;;5092993;28;20064;-46
2022/10/07 00:49:17;;;;;;;13.32;3.50;;;9.20;99.90;;;;;;5093164;28;20357;-43
2022/10/07 00:51:43;;;;;;;10.60;3.08;;;9.40;99.90;;;;;;5093127;28;20065;-46
2022/10/07 00:54:12;;;;;;;10.00;2.83;;;9.30;99.90;;;;;;5093024;28;20114;-43
2022/10/07 00:56:40;;;;;;;10.60;2.92;;;9.20;99.90;;;;;;5092934;28;20032;-45
2022/10/07 00:59:06;;;;;;;12.13;3.22;;;9.40;99.90;;;;;;5092730;28;20032;-44
2022/10/07 01:01:32;;;;;;;11.48;3.25;;;9.20;99.90;;;;;;5092810;28;20081;-45
2022/10/07 01:03:57;;;;;;;12.43;3.15;;;9.20;99.90;;;;;;5092389;28;20082;-43
2022/10/07 01:06:23;;;;;;;12.00;3.35;;;9.20;99.90;;;;;;5093015;28;20069;-46
2022/10/07 01:08:51;;;;;;;10.63;3.30;;;9.20;99.90;;;;;;5092581;28;20032;-44
2022/10/07 01:11:42;;;;;;;12.95;3.42;;;9.10;99.90;;;;;;5092810;28;20491;-44
2022/10/07 01:14:17;;;;;;;9.60;3.45;;;9.10;99.90;;;;;;5092711;28;20437;-45
2022/10/07 01:16:56;;;;;;;;;;;9.00;99.90;;;;;;5092971;28;20089;-44
2022/10/07 01:19:35;;;;;;;8.95;2.75;;;9.00;99.90;;;;;;5092391;28;19959;-44
2022/10/07 01:22:06;;;;;;;10.02;3.13;;;9.10;99.90;;;;;;5092430;28;20039;-43
2022/10/07 01:24:49;;;;;;;12.82;3.22;;;9.00;99.90;;;;;;5091274;28;20400;-46
2022/10/07 01:27:21;;;;;;;10.27;2.67;;;9.00;99.90;;;;;;5092664;28;20592;-45
2022/10/07 01:29:57;;;;;;;17.23;3.50;;;9.00;99.90;;;;;;5091241;28;20044;-44
2022/10/07 01:32:43;;;;;;;9.90;3.53;;;9.00;99.90;;;;;;5092331;28;20040;-42
2022/10/07 01:35:17;;;;;;;11.05;3.67;;;8.90;99.90;;;;;;5090745;28;20036;-44
2022/10/07 01:37:50;;;;;;;20.70;4.53;;;8.90;99.90;;;;;;5092342;28;20032;-46
2022/10/07 01:40:23;;;;;;;12.95;3.53;;;8.80;99.90;;;;;;5092463;28;20046;-47
2022/10/07 01:42:50;;;;;;;12.32;3.55;;;8.80;99.90;;;;;;5091995;28;20044;-45
2022/10/07 01:45:20;;;;;;;12.13;3.05;;;8.90;99.90;;;;;;5091912;28;20139;-44
2022/10/07 01:47:47;;;;;;;10.88;3.70;;;8.90;99.90;;;;;;5091961;28;20047;-45
2022/10/07 01:50:13;;;;;;;12.38;3.40;;;8.80;99.90;;;;;;5091985;28;20445;-47
2022/10/07 01:52:58;;;;;;;12.52;3.67;;;8.80;99.90;;;;;;5091973;28;20079;-44
2022/10/07 01:55:34;;;;;;;10.38;3.00;;;8.80;99.90;;;;;;5091720;28;20040;-47
2022/10/07 01:58:29;;;;;;;14.30;3.33;;;8.70;99.90;;;;;;5091963;28;20143;-44
2022/10/07 02:01:23;;;;;;;11.10;3.45;;;8.70;99.90;;;;;;5091431;28;20043;-43
2022/10/07 02:04:13;;;;;;;11.45;3.40;;;8.70;99.90;;;;;;5079987;28;20056;-44
2022/10/07 02:06:50;;;;;;;11.10;3.22;;;8.60;99.90;;;;;;5091849;28;20133;-45
2022/10/07 02:10:01;;;;;;;13.40;4.00;;;8.60;99.90;;;;;;5091559;28;20032;-43
2022/10/07 02:12:39;;;;;;;12.40;3.17;;;8.50;99.90;;;;;;5077738;28;20043;-47
2022/10/07 02:15:23;;;;;;;10.32;4.03;;;8.50;99.90;;;;;;5091619;28;20048;-42
2022/10/07 02:17:53;;;;;;;11.13;3.50;;;8.50;99.90;;;;;;5091428;28;20040;-42
2022/10/07 02:20:22;;;;;;;14.75;3.25;;;8.40;99.90;;;;;;5091233;28;20317;-46
2022/10/07 02:22:49;;;;;;;13.05;3.60;;;8.50;99.90;;;;;;5089804;28;20377;-45
2022/10/07 02:25:18;;;;;;;8.60;3.22;;;8.30;99.90;;;;;;5091283;28;20040;-45
2022/10/07 02:27:47;;;;;;;11.40;3.30;;;8.30;99.90;;;;;;5091361;28;20040;-44
2022/10/07 02:30:17;;;;;;;15.70;4.22;;;8.40;99.90;;;;;;5090669;28;20079;-44
2022/10/07 02:32:53;;;;;;;19.45;4.10;;;8.30;99.90;;;;;;5091071;28;20375;-45
2022/10/07 02:35:40;;;;;;;10.63;3.90;;;8.30;99.90;;;;;;5091058;28;20499;-43
2022/10/07 02:38:10;;;;;;;10.15;3.72;;;8.30;99.90;;;;;;5090204;28;20245;-44
2022/10/07 02:40:42;;;;;;;12.55;3.95;;;8.30;99.90;;;;;;5091205;28;20039;-43
2022/10/07 02:43:27;;;;;;;10.27;3.47;;;8.30;99.90;;;;;;5090825;28;20105;-47
2022/10/07 02:46:17;;;;;;;13.45;3.80;;;8.30;99.90;;;;;;5089521;28;20044;-44
2022/10/07 02:48:50;;;;;;;14.55;3.72;;;8.30;99.90;;;;;;5089986;28;20096;-46
2022/10/07 02:51:20;;;;;;;13.52;3.75;;;8.40;99.90;;;;;;5090199;28;20424;-45
2022/10/07 02:53:48;;;;;;;14.60;4.13;;;8.40;99.90;;;;;;5088284;28;20036;-44
2022/10/07 02:56:16;;;;;;;13.70;4.00;;;8.30;99.90;;;;;;5090589;28;20044;-43
2022/10/07 02:58:45;;;;;;;12.52;3.92;;;8.30;99.90;;;;;;5089979;28;20032;-44
2022/10/07 03:01:16;;;;;;;16.95;3.88;;;8.40;99.90;;;;;;5090643;28;20052;-44
2022/10/07 03:03:43;;;;;;;13.82;4.22;;;8.40;99.90;;;;;;5090086;28;20040;-43
2022/10/07 03:06:11;;;;;;;12.73;4.05;;;8.40;99.90;;;;;;5090741;28;20083;-48
2022/10/07 03:08:37;;;;;;;14.13;3.90;;;8.30;99.90;;;;;;5090580;28;20040;-46
2022/10/07 03:11:02;;;;;;;15.43;4.30;;;8.50;99.90;;;;;;5090514;28;20036;-42
2022/10/07 03:13:28;;;;;;;12.57;3.95;;;8.40;99.90;;;;;;5090659;28;20039;-45
2022/10/07 03:15:54;;;;;;;14.15;4.28;;;8.40;99.90;;;;;;5090095;28;20032;-43
2022/10/07 03:18:26;;;;;;;14.07;3.55;;;8.50;99.90;;;;;;5090527;28;20089;-46
2022/10/07 03:20:56;;;;;;;17.70;4.15;;;8.50;99.90;;;;;;5090546;28;20052;-43
2022/10/07 03:23:23;;;;;;;12.80;4.03;;;8.50;99.90;;;;;;5090322;28;20463;-44
2022/10/07 03:25:50;;;;;;;11.63;3.65;;;8.40;99.90;;;;;;5090408;28;20054;-44
2022/10/07 03:28:20;;;;;;;13.85;3.85;;;8.50;99.90;;;;;;5090206;28;20373;-43
2022/10/07 03:30:48;;;;;;;14.25;3.47;;;8.60;99.90;;;;;;5090220;28;20042;-48
2022/10/07 03:33:15;;;;;;;10.75;3.80;;;8.50;99.90;;;;;;5089984;28;20115;-43
2022/10/07 03:35:40;;;;;;;19.00;4.00;;;8.40;99.90;;;;;;5090301;28;20494;-44
2022/10/07 03:38:07;;;;;;;17.77;3.65;;;8.50;99.90;;;;;;5090250;28;20060;-44
2022/10/07 03:40:33;;;;;;;13.50;3.92;;;8.40;99.90;;;;;;5089832;28;20051;-44
2022/10/07 03:42:59;;;;;;;14.38;3.97;;;8.30;99.90;;;;;;5089945;28;20086;-47
2022/10/07 03:45:25;;;;;;;11.60;4.35;;;8.60;99.90;;;;;;5090215;28;20067;-44
2022/10/07 03:47:51;;;;;;;14.43;4.07;;;8.30;99.90;;;;;;5091877;28;20075;-43
2022/10/07 03:50:17;;;;;;;16.42;4.20;;;8.30;99.90;;;;;;5094383;28;20494;-48
2022/10/07 03:52:44;;;;;;;11.00;3.67;;;8.50;99.90;;;;;;5094106;28;20036;-42
2022/10/07 03:55:10;;;;;;;14.13;3.90;;;8.60;99.90;;;;;;5094151;28;20066;-44
2022/10/07 03:57:52;;;;;;;11.57;3.42;;;8.30;99.90;;;;;;5094375;28;20039;-45
2022/10/07 04:00:22;;;;;;;12.82;4.07;;;8.50;99.90;;;;;;5094119;28;20111;-43
2022/10/07 04:02:49;;;;;;;12.48;4.35;;;8.50;99.90;;;;;;5093949;28;20039;-43
2022/10/07 04:05:16;;;;;;;14.02;3.97;;;8.30;99.90;;;;;;5094138;28;20036;-46
2022/10/07 04:07:43;;;;;;;10.30;3.67;;;8.80;99.90;;;;;;5092885;28;20040;-45
2022/10/07 04:10:11;;;;;;;13.20;4.40;;;8.20;99.90;;;;;;5093691;28;20118;-47
2022/10/07 04:12:37;;;;;;;12.45;3.90;;;8.40;99.90;;;;;;5093962;28;20028;-46
2022/10/07 04:15:03;;;;;;;13.70;4.15;;;8.30;99.90;;;;;;5093665;28;20043;-45
2022/10/07 04:17:28;;;;;;;10.90;3.78;;;8.30;99.90;;;;;;5093662;28;20421;-47
2022/10/07 04:19:54;;;;;;;15.75;4.10;;;8.20;99.90;;;;;;5093825;28;20036;-47
2022/10/07 04:22:20;;;;;;;18.08;4.72;;;8.40;99.90;;;;;;5093843;28;20564;-43
2022/10/07 04:25:32;;;;;;;16.02;4.57;;;8.30;99.90;;;;;;5093678;28;20105;-49
2022/10/07 04:27:32;;;;;;;17.42;4.13;;;8.40;99.90;;;;;;5093408;28;20044;-47
2022/10/07 04:29:57;;;;;;;18.40;4.50;;;8.20;99.90;;;;;;5093109;28;20410;-46
2022/10/07 04:32:23;;;;;;;14.65;4.75;;;8.50;99.90;;;;;;5093497;28;20036;-44
2022/10/07 04:34:52;;;;;;;14.27;4.47;;;8.30;99.90;;;;;;5092809;28;20032;-46
2022/10/07 04:37:18;;;;;;;14.07;4.38;;;8.40;99.90;;;;;;5093158;28;20036;-47
2022/10/07 04:39:43;;;;;;;20.13;4.68;;;8.40;99.90;;;;;;5092185;28;20085;-46
2022/10/07 04:43:17;;;;;;;10.57;3.80;;;8.80;99.90;;;;;;5091448;28;20380;-47
2022/10/07 04:44:55;;;;;;;12.48;4.18;;;8.30;99.90;;;;;;5092852;28;20078;-47
2022/10/07 04:47:20;;;;;;;17.52;4.75;;;8.40;99.90;;;;;;5093397;28;20422;-46
2022/10/07 04:49:47;;;;;;;18.75;4.50;;;8.40;99.90;;;;;;5093253;28;20051;-44
2022/10/07 04:52:12;;;;;;;14.98;4.22;;;8.30;99.90;;;;;;5093224;28;20042;-42
2022/10/07 04:54:38;;;;;;;14.93;4.22;;;8.30;99.90;;;;;;5093213;28;20028;-47
2022/10/07 04:57:04;;;;;;;15.55;4.97;;;8.30;99.90;;;;;;5093015;28;20042;-45
2022/10/07 04:59:30;;;;;;;18.10;5.18;;;8.50;99.90;;;;;;5091826;28;20035;-44
2022/10/07 05:01:56;;;;;;;22.52;5.15;;;8.40;99.90;;;;;;5093107;28;20064;-43
2022/10/07 05:04:22;;;;;;;17.13;4.88;;;8.40;99.90;;;;;;5092617;28;20057;-44
2022/10/07 05:06:48;;;;;;;13.30;4.70;;;8.50;99.90;;;;;;5092788;28;20040;-42
2022/10/07 05:09:14;;;;;;;16.45;4.93;;;8.50;99.90;;;;;;5092557;28;20111;-46
2022/10/07 05:11:39;;;;;;;17.70;5.50;;;8.40;99.90;;;;;;5092927;28;20046;-46
2022/10/07 05:14:05;;;;;;;16.27;5.25;;;8.30;99.90;;;;;;5092818;28;20467;-45
2022/10/07 05:16:31;;;;;;;20.55;5.05;;;8.50;99.90;;;;;;5092788;28;20445;-46
2022/10/07 05:18:56;;;;;;;16.77;5.25;;;8.40;99.90;;;;;;5092464;28;20032;-44
2022/10/07 05:21:22;;;;;;;19.30;4.95;;;8.50;99.90;;;;;;5092863;28;20403;-46
2022/10/07 05:23:48;;;;;;;18.48;4.80;;;8.30;99.90;;;;;;5092443;28;20035;-45
2022/10/07 05:26:14;;;;;;;18.92;5.32;;;8.30;99.90;;;;;;5092653;28;20038;-44
2022/10/07 05:28:40;;;;;;;16.55;5.53;;;8.50;99.90;;;;;;5092127;28;20052;-45
2022/10/07 05:31:09;;;;;;;14.05;5.20;;;8.30;99.90;;;;;;5092523;28;20055;-47
2022/10/07 05:33:35;;;;;;;18.27;5.32;;;8.30;99.90;;;;;;5092048;28;20029;-45
2022/10/07 05:36:01;;;;;;;12.88;4.78;;;8.40;99.90;;;;;;5091950;28;20116;-47
2022/10/07 05:38:27;;;;;;;14.90;4.85;;;8.30;99.90;;;;;;5092219;28;20036;-45
2022/10/07 05:41:01;;;;;;;18.48;5.20;;;8.40;99.90;;;;;;5090899;28;20498;-45
2022/10/07 05:43:29;;;;;;;25.17;5.85;;;8.50;99.90;;;;;;5092146;28;20032;-44
2022/10/07 05:46:00;;;;;;;19.55;5.82;;;8.40;99.90;;;;;;5092243;28;20028;-45
2022/10/07 05:48:27;;;;;;;22.73;5.97;;;8.30;99.90;;;;;;5092113;28;20036;-43
2022/10/07 05:50:53;;;;;;;17.38;5.68;;;8.20;99.90;;;;;;5091692;28;20040;-43
2022/10/07 05:53:19;;;;;;;20.15;6.07;;;8.20;99.90;;;;;;5091936;28;20036;-45
2022/10/07 05:55:45;;;;;;;18.10;5.53;;;8.20;99.90;;;;;;5090397;28;20043;-44
2022/10/07 05:58:12;;;;;;;18.67;5.38;;;8.20;99.90;;;;;;5091895;28;20032;-45
2022/10/07 06:00:41;;;;;;;17.13;5.45;;;8.30;99.90;;;;;;5091867;28;20047;-47
2022/10/07 06:03:07;;;;;;;19.15;6.25;;;8.40;99.90;;;;;;5091424;28;20043;-44
2022/10/07 06:05:33;;;;;;;15.30;5.20;;;8.40;99.90;;;;;;5091519;28;20494;-47
2022/10/07 06:07:58;;;;;;;20.92;5.10;;;8.40;99.90;;;;;;5090167;28;20097;-44
2022/10/07 06:13:08;;;;;;;17.73;5.50;;;8.50;99.90;;;;;;5091570;28;20044;-46
2022/10/07 06:15:35;;;;;;;20.30;5.95;;;8.50;99.90;;;;;;5091159;28;20042;-44
2022/10/07 06:18:02;;;;;;;21.33;5.22;;;8.30;99.90;;;;;;5091439;28;20036;-44
2022/10/07 06:20:27;;;;;;;18.25;5.55;;;8.30;99.90;;;;;;5091390;28;20051;-44
2022/10/07 06:22:54;;;;;;;19.55;5.75;;;8.60;99.90;;;;;;5091321;28;20406;-47
2022/10/07 06:25:20;;;;;;;16.77;4.90;;;8.30;99.90;;;;;;5091390;28;20048;-46
2022/10/07 06:27:45;;;;;;;19.88;5.82;;;8.60;99.90;;;;;;5091275;28;20115;-44
2022/10/07 06:30:12;;;;;;;21.02;6.22;;;8.40;99.90;;;;;;5090967;28;20092;-44
2022/10/07 06:32:37;;;;;;;16.65;4.88;;;8.70;99.90;;;;;;5090934;28;20047;-43
2022/10/07 06:35:03;;;;;;;15.02;4.85;;;8.50;99.90;;;;;;5090682;28;20032;-43
2022/10/07 06:37:30;;;;;;;19.25;5.40;;;8.70;99.90;;;;;;5089896;28;20369;-45
2022/10/07 06:39:57;;;;;;;18.42;4.78;;;8.80;99.90;;;;;;5091089;28;20112;-48
2022/10/07 06:42:22;;;;;;;16.17;4.88;;;8.90;99.90;;;;;;5090964;28;20046;-45
2022/10/07 06:44:48;;;;;;;17.77;5.10;;;8.70;99.90;;;;;;5090691;28;20044;-45
2022/10/07 06:47:14;;;;;;;17.83;5.40;;;8.90;99.90;;;;;;5091033;28;20071;-46
2022/10/07 06:49:40;;;;;;;19.05;5.10;;;9.10;99.90;;;;;;5090725;28;20036;-46
2022/10/07 06:52:05;;;;;;;14.73;4.47;;;9.10;99.90;;;;;;5090807;28;20024;-47
2022/10/07 06:54:33;;;;;;;21.02;5.00;;;9.00;99.90;;;;;;5090973;28;20044;-45
2022/10/07 06:56:59;;;;;;;15.30;4.65;;;9.20;99.90;;;;;;5090875;28;20125;-48
2022/10/07 06:59:24;;;;;;;16.55;4.10;;;9.20;99.90;;;;;;5089545;28;20043;-47
2022/10/07 07:01:50;;;;;;;17.55;4.80;;;9.10;99.90;;;;;;5090404;28;20546;-43
2022/10/07 07:04:15;;;;;;;17.08;4.72;;;9.30;99.90;;;;;;5089219;28;20051;-44
2022/10/07 07:06:41;;;;;;;15.20;4.93;;;9.50;99.90;;;;;;5089210;28;20036;-43
2022/10/07 07:09:07;;;;;;;14.75;4.43;;;9.30;99.90;;;;;;5090712;28;20408;-44
2022/10/07 07:11:36;;;;;;;18.23;5.25;;;9.40;99.90;;;;;;5090519;28;20085;-45
2022/10/07 07:14:05;;;;;;;17.02;5.05;;;9.60;99.90;;;;;;5090590;28;20035;-45
2022/10/07 07:16:31;;;;;;;15.65;4.05;;;9.50;99.90;;;;;;5090587;28;20043;-45
2022/10/07 07:19:01;;;;;;;19.20;4.68;;;9.70;99.90;;;;;;5090608;28;20032;-44
2022/10/07 07:21:32;;;;;;;15.27;4.60;;;9.60;99.90;;;;;;5090599;28;20502;-43
2022/10/07 07:23:58;;;;;;;21.13;5.07;;;9.70;99.90;;;;;;5090108;28;20078;-44
2022/10/07 07:26:24;;;;;;;20.70;5.15;;;9.70;99.90;;;;;;5090590;28;20431;-45
2022/10/07 07:28:54;;;;;;;13.85;4.30;;;9.70;99.90;;;;;;5089987;28;20070;-44
2022/10/07 07:31:20;;;;;;;16.98;3.83;;;10.00;99.90;;;;;;5089928;28;20083;-45
2022/10/07 07:33:51;;;;;;;14.05;4.07;;;9.90;99.90;;;;;;5089628;28;20066;-43
2022/10/07 07:36:19;;;;;;;23.17;5.55;;;9.90;99.90;;;;;;5090383;28;20484;-45
2022/10/07 07:38:53;;;;;;;11.38;3.80;;;10.10;99.90;;;;;;5090080;28;20043;-45
2022/10/07 07:41:24;;;;;;;17.27;4.32;;;10.20;99.90;;;;;;5090418;28;20051;-46
2022/10/07 07:43:56;;;;;;;19.23;4.22;;;10.30;99.90;;;;;;5090480;28;20040;-46
2022/10/07 07:46:24;;;;;;;21.55;4.13;;;10.30;99.90;;;;;;5090412;28;20136;-43
2022/10/07 07:48:52;;;;;;;19.38;4.05;;;10.50;99.90;;;;;;5089158;28;20040;-45
2022/10/07 07:51:18;;;;;;;13.88;3.75;;;10.40;99.90;;;;;;5089746;28;20040;-45
2022/10/07 07:53:45;;;;;;;16.13;4.00;;;10.70;99.90;;;;;;5089872;28;20040;-47
2022/10/07 07:56:11;;;;;;;12.20;4.15;;;10.60;99.90;;;;;;5090092;28;20600;-44
2022/10/07 07:58:38;;;;;;;21.73;4.00;;;10.80;99.90;;;;;;5090074;28;20048;-45
2022/10/07 08:01:17;;;;;;;12.55;3.50;;;10.70;99.90;;;;;;5090149;28;20353;-43
2022/10/07 08:03:45;;;;;;;12.32;3.45;;;10.90;99.90;;;;;;5089397;28;20051;-43
2022/10/07 08:06:12;;;;;;;15.52;3.60;;;10.90;99.90;;;;;;5089986;28;20054;-44
2022/10/07 08:08:41;;;;;;;19.60;3.60;;;11.10;99.90;;;;;;5089792;28;20046;-45
2022/10/07 08:11:27;;;;;;;14.45;4.30;;;11.00;99.90;;;;;;5089630;28;20070;-46
2022/10/07 08:13:54;;;;;;;16.25;3.90;;;11.20;99.90;;;;;;5090100;28;20043;-45
2022/10/07 08:16:21;;;;;;;18.80;4.18;;;11.40;99.90;;;;;;5089544;28;20040;-45
2022/10/07 08:18:49;;;;;;;19.13;3.60;;;11.40;99.90;;;;;;5089680;28;20040;-45
2022/10/07 08:21:17;;;;;;;12.55;4.03;;;11.50;99.90;;;;;;5089800;28;20107;-43
2022/10/07 08:23:43;;;;;;;15.25;3.78;;;11.50;99.90;;;;;;5088397;28;20086;-45
2022/10/07 08:26:10;;;;;;;13.57;3.80;;;11.60;99.90;;;;;;5089688;28;20080;-43
2022/10/07 08:28:36;;;;;;;16.77;3.85;;;11.80;99.90;;;;;;5089623;28;20044;-45
2022/10/07 08:31:05;;;;;;;12.38;4.20;;;11.80;99.90;;;;;;5089525;28;20048;-48
2022/10/07 08:33:33;;;;;;;15.88;3.83;;;11.90;99.90;;;;;;5089449;28;20029;-46
2022/10/07 08:36:00;;;;;;;12.70;3.55;;;12.10;99.90;;;;;;5092839;28;20115;-46
2022/10/07 08:38:30;;;;;;;16.10;3.03;;;12.30;99.90;;;;;;5093186;28;20038;-47
2022/10/07 08:41:19;;;;;;;16.98;2.92;;;12.50;99.90;;;;;;5093588;28;20097;-45
2022/10/07 08:43:50;;;;;;;15.05;2.92;;;12.60;99.90;;;;;;5061408;28;20151;-47
2022/10/07 08:46:31;;;;;;;19.23;3.13;;;12.80;99.90;;;;;;5093339;28;20040;-45
2022/10/07 08:49:05;;;;;;;16.38;3.22;;;13.10;99.90;;;;;;5093547;28;20380;-44
2022/10/07 08:51:45;;;;;;;14.10;2.97;;;13.10;99.90;;;;;;5092579;28;20047;-44
2022/10/07 08:54:17;;;;;;;14.88;2.97;;;13.20;99.90;;;;;;5093476;28;20114;-49
2022/10/07 08:56:45;;;;;;;12.68;2.30;;;13.30;99.90;;;;;;5093106;28;20372;-48
2022/10/07 08:59:15;;;;;;;13.25;2.88;;;13.40;99.90;;;;;;5093197;28;20513;-44
2022/10/07 09:01:58;;;;;;;17.00;3.13;;;13.60;99.90;;;;;;5093049;28;20114;-45
2022/10/07 09:04:40;;;;;;;13.20;2.80;;;13.70;99.90;;;;;;5091418;28;20046;-44
2022/10/07 09:07:14;;;;;;;14.35;4.03;;;13.90;99.90;;;;;;5092909;28;20535;-47
2022/10/07 09:09:52;;;;;;;14.60;3.28;;;13.90;99.90;;;;;;5093045;28;20055;-45
2022/10/07 09:12:52;;;;;;;18.58;3.30;;;14.10;99.90;;;;;;5092583;28;20075;-45
2022/10/07 09:15:44;;;;;;;14.32;2.72;;;14.30;99.90;;;;;;5092592;28;20040;-46
2022/10/07 09:18:30;;;;;;;14.05;3.17;;;14.60;99.90;;;;;;5092834;28;20471;-45
2022/10/07 09:20:56;;;;;;;14.98;3.05;;;14.60;99.90;;;;;;5092467;28;20498;-47
2022/10/07 09:23:24;;;;;;;12.95;2.92;;;14.60;99.90;;;;;;5092472;28;20028;-48
2022/10/07 09:25:50;;;;;;;13.60;2.90;;;14.60;99.90;;;;;;5092441;28;20067;-46
2022/10/07 09:28:19;;;;;;;16.30;3.65;;;14.70;99.90;;;;;;5091156;28;20036;-44
2022/10/07 09:30:45;;;;;;;15.52;3.10;;;14.90;99.90;;;;;;5092443;28;20471;-43
2022/10/07 09:33:18;;;;;;;14.07;2.78;;;14.90;99.90;;;;;;5092517;28;20036;-48
2022/10/07 09:35:55;;;;;;;13.32;3.10;;;15.50;99.90;;;;;;5092501;28;20475;-46
2022/10/07 09:38:36;;;;;;;18.20;3.20;;;14.90;99.90;;;;;;5092350;28;20352;-45
2022/10/07 09:41:19;;;;;;;17.75;3.00;;;14.90;99.90;;;;;;5091641;28;20036;-46
2022/10/07 09:44:13;;;;;;;15.45;3.20;;;14.90;99.90;;;;;;5092374;28;20076;-45
2022/10/07 09:46:52;;;;;;;14.40;3.10;;;14.90;99.90;;;;;;5089737;28;20143;-45
2022/10/07 09:49:43;;;;;;;13.48;3.13;;;14.90;99.90;;;;;;5091834;28;20040;-45
2022/10/07 09:52:24;;;;;;;12.23;2.80;;;14.90;99.90;;;;;;5084703;28;20079;-46
2022/10/07 09:54:53;;;;;;;12.63;2.83;;;15.00;99.90;;;;;;5090613;28;20040;-44
2022/10/07 09:57:25;;;;;;;14.57;3.10;;;15.00;99.90;;;;;;5091547;28;20043;-45
2022/10/07 09:59:51;;;;;;;17.55;2.97;;;15.10;99.90;;;;;;5091642;28;20055;-45
2022/10/07 10:02:24;;;;;;;17.90;3.40;;;15.20;99.90;;;;;;5091948;28;20047;-44
2022/10/07 10:04:52;;;;;;;10.98;2.97;;;15.30;99.90;;;;;;5091399;28;20036;-45
2022/10/07 10:07:19;;;;;;;13.52;2.58;;;15.50;99.90;;;;;;5091797;28;20039;-44
2022/10/07 10:09:56;;;;;;;15.00;3.30;;;15.80;99.90;;;;;;5091637;28;20036;-49
2022/10/07 10:12:23;;;;;;;14.82;3.10;;;16.00;99.90;;;;;;5091807;28;20044;-46
2022/10/07 10:14:58;;;;;;;12.23;2.60;;;16.20;99.90;;;;;;5091667;28;20471;-43
2022/10/07 10:17:26;;;;;;;11.45;3.00;;;16.20;99.90;;;;;;5091729;28;20043;-45
2022/10/07 10:19:52;;;;;;;11.32;2.53;;;16.40;99.90;;;;;;5091615;28;20040;-47
2022/10/07 10:22:29;;;;;;;12.02;2.92;;;16.60;99.90;;;;;;5091409;28;20055;-46
2022/10/07 10:28:11;;;;;;;13.48;2.78;;;16.90;99.90;;;;;;5091509;28;20052;-46
2022/10/07 10:30:46;;;;;;;14.23;2.95;;;17.10;99.90;;;;;;5091321;28;20067;-47
2022/10/07 10:33:26;;;;;;;20.58;3.60;;;17.20;99.90;;;;;;5090897;28;20028;-43
2022/10/07 10:36:06;;;;;;;14.93;3.00;;;17.40;99.90;;;;;;5090691;28;20036;-46
2022/10/07 10:38:42;;;;;;;15.93;3.53;;;17.50;99.90;;;;;;5090905;28;20085;-46
2022/10/07 10:41:34;;;;;;;12.40;2.97;;;17.40;99.90;;;;;;5090937;28;20044;-47
2022/10/07 10:44:26;;;;;;;12.00;2.78;;;17.20;99.90;;;;;;5090935;28;20308;-46
2022/10/07 10:47:05;;;;;;;13.90;3.28;;;17.00;99.90;;;;;;5087840;28;20052;-46
2022/10/07 10:49:36;;;;;;;12.25;3.30;;;16.80;99.90;;;;;;5090354;28;20086;-45
2022/10/07 10:52:05;;;;;;;15.35;3.35;;;16.80;99.90;;;;;;5091219;28;20467;-48
2022/10/07 10:54:37;;;;;;;11.82;2.65;;;16.60;99.90;;;;;;5090511;28;20028;-44
2022/10/07 10:57:26;;;;;;;16.23;3.53;;;16.60;99.90;;;;;;5089885;28;20035;-47
2022/10/07 11:00:14;;;;;;;16.60;3.88;;;16.40;99.90;;;;;;5090051;28;20047;-47
2022/10/07 11:03:04;;;;;;;14.27;3.38;;;16.30;99.90;;;;;;5090913;28;20039;-45
2022/10/07 11:05:39;;;;;;;18.55;4.18;;;16.30;99.90;;;;;;5090116;28;20078;-47
2022/10/07 11:08:16;;;;;;;14.02;2.95;;;16.20;99.90;;;;;;5090802;28;20493;-47
2022/10/07 11:10:57;;;;;;;16.73;3.20;;;16.20;99.90;;;;;;5090689;28;20534;-46
2022/10/07 11:13:27;;;;;;;14.30;3.42;;;16.30;99.90;;;;;;5090533;28;20070;-44
2022/10/07 11:15:58;;;;;;;13.68;3.25;;;16.60;99.90;;;;;;5090599;28;20471;-45
2022/10/07 11:18:35;;;;;;;12.68;3.22;;;17.00;99.90;;;;;;5090829;28;20032;-50
2022/10/07 11:21:05;;;;;;;13.13;2.88;;;17.30;99.90;;;;;;5090763;28;20036;-47
2022/10/07 11:23:33;;;;;;;13.43;3.00;;;17.60;99.90;;;;;;5090347;28;20036;-45
2022/10/07 11:26:24;;;;;;;10.80;2.40;;;17.90;99.90;;;;;;5090112;28;20119;-47
2022/10/07 11:28:51;;;;;;;10.55;2.83;;;18.10;99.90;;;;;;5090124;28;20056;-45
2022/10/07 11:31:34;;;;;;;13.68;2.35;;;18.40;99.90;;;;;;5090164;28;20064;-44
2022/10/07 11:34:21;;;;;;;12.32;2.20;;;18.60;99.90;;;;;;5087465;28;20101;-48
2022/10/07 11:37:02;;;;;;;13.00;2.83;;;18.90;99.90;;;;;;5090457;28;20054;-46
2022/10/07 11:39:28;;;;;;;8.00;2.15;;;19.00;99.90;;;;;;5090109;28;20032;-49
2022/10/07 11:42:04;;;;;;;11.10;2.50;;;18.90;99.90;;;;;;5090356;28;20085;-44
2022/10/07 11:44:52;;;;;;;11.38;2.33;;;18.60;99.90;;;;;;5090419;28;20047;-46
2022/10/07 11:47:23;;;;;;;13.70;2.45;;;18.30;99.90;;;;;;5090052;28;20040;-45
2022/10/07 11:50:21;;;;;;;9.32;1.88;;;18.00;99.90;;;;;;5090273;28;20122;-45
2022/10/07 11:52:52;;;;;;;9.40;1.95;;;17.80;99.90;;;;;;5061743;28;20074;-47
2022/10/07 11:55:25;;;;;;;8.75;1.75;;;17.70;99.90;;;;;;5090013;28;20051;-48
2022/10/07 11:57:55;;;;;;;11.52;2.28;;;17.70;99.90;;;;;;5090230;28;20028;-43
2022/10/07 12:00:39;;;;;;;10.38;1.95;;;17.70;99.90;;;;;;5089886;28;20032;-43
2022/10/07 12:03:11;;;;;;;11.60;2.20;;;17.60;99.90;;;;;;5088746;28;20111;-47
2022/10/07 12:05:36;;;;;;;8.50;1.90;;;17.60;99.90;;;;;;5089534;28;20036;-47
2022/10/07 12:08:23;;;;;;;10.48;1.90;;;17.60;99.90;;;;;;5090298;28;20391;-44
2022/10/07 12:10:53;;;;;;;8.98;1.65;;;17.60;99.90;;;;;;5093817;28;20047;-48
2022/10/07 12:13:21;;;;;;;10.60;1.98;;;17.60;99.90;;;;;;5093778;28;20036;-45
2022/10/07 12:15:48;;;;;;;11.02;1.73;;;17.50;99.90;;;;;;5094041;28;20043;-46
2022/10/07 12:18:16;;;;;;;12.55;2.47;;;17.60;99.90;;;;;;5093860;28;20364;-45
2022/10/07 12:20:51;;;;;;;10.15;2.33;;;17.50;99.90;;;;;;5093754;28;20039;-45
2022/10/07 12:25:47;;;;;;;9.85;2.20;;;17.40;99.90;;;;;;5093977;28;20048;-47
2022/10/07 12:28:37;;;;;;;10.82;2.35;;;17.40;99.90;;;;;;5093537;28;20093;-47
2022/10/07 12:31:04;;;;;;;14.77;2.40;;;17.40;99.90;;;;;;5093767;28;20124;-44
2022/10/07 12:33:53;;;;;;;9.90;2.33;;;17.40;99.90;;;;;;5093737;28;20066;-46
2022/10/07 12:36:22;;;;;;;10.00;2.00;;;17.50;99.90;;;;;;5093613;28;20098;-44
2022/10/07 12:41:26;;;;;;;9.57;2.30;;;17.40;99.90;;;;;;5093494;28;20051;-46
2022/10/07 12:43:58;;;;;;;11.27;2.58;;;17.50;99.90;;;;;;5092570;28;20090;-44
2022/10/07 12:46:28;;;;;;;8.20;1.98;;;17.50;99.90;;;;;;5092257;28;20036;-44
2022/10/07 12:49:01;;;;;;;12.35;2.10;;;17.60;99.90;;;;;;5091711;28;20093;-46
2022/10/07 12:51:38;;;;;;;12.10;2.60;;;17.80;99.90;;;;;;5091716;28;20087;-44
2022/10/07 12:54:19;;;;;;;13.05;2.17;;;18.00;99.90;;;;;;5092830;28;20036;-44
2022/10/07 12:56:46;;;;;;;10.63;2.20;;;18.20;99.90;;;;;;5093214;28;20115;-46
2022/10/07 13:02:27;;;;;;;9.95;2.15;;;18.20;99.90;;;;;;5093135;28;20173;-46
2022/10/07 13:05:11;;;;;;;;;;;18.30;99.90;;;;;;5092921;28;20032;-48
2022/10/07 13:07:58;;;;;;;10.40;2.10;;;18.40;99.90;;;;;;5092657;28;19967;-44
2022/10/07 13:10:52;;;;;;;12.52;2.53;;;18.30;99.90;;;;;;5092851;28;20044;-46
2022/10/07 13:13:50;;;;;;;7.30;1.90;;;18.30;99.90;;;;;;5093117;28;20039;-44
2022/10/07 13:16:37;;;;;;;9.02;2.25;;;18.20;99.90;;;;;;5087912;28;20620;-46
2022/10/07 13:19:46;;;;;;;9.35;2.15;;;18.10;99.90;;;;;;5092502;28;20043;-43
2022/10/07 13:22:18;;;;;;;9.13;2.03;;;18.10;99.90;;;;;;5092209;28;20051;-49